Time;durP1;ratioP1;P1;durP2;ratioP2;P2;SDS_P1;SDS_P2;PMS_P1;PMS_P2;Temp;Humidity;BMP_temperature;BMP_pressure;BME280_temperature;BME280_humidity;BME280_pressure;Samples;Min_cycle;Max_cycle;Signal;HPM_P1;HPM_P2
2024/01/14 00:00:09;;;;;;;9.33;8.63;;;15.50;65.40;;;;;;5041394;28;45146;-71
2024/01/14 00:02:38;;;;;;;9.20;8.60;;;15.50;65.30;;;;;;5036361;28;43403;-71
2024/01/14 00:05:07;;;;;;;9.37;8.67;;;15.50;65.30;;;;;;5038596;28;43385;-71
2024/01/14 00:07:36;;;;;;;9.20;8.50;;;15.50;65.20;;;;;;5046369;28;43935;-71
2024/01/14 00:10:05;;;;;;;9.13;8.53;;;15.50;65.30;;;;;;5038707;28;44106;-71
2024/01/14 00:12:33;;;;;;;9.57;8.97;;;15.40;65.20;;;;;;5040992;28;43388;-71
2024/01/14 00:15:03;;;;;;;9.67;9.03;;;15.50;65.40;;;;;;5032087;28;43472;-72
2024/01/14 00:17:31;;;;;;;9.80;9.13;;;15.50;65.50;;;;;;5032513;28;45950;-71
2024/01/14 00:20:02;;;;;;;9.53;8.93;;;15.50;65.70;;;;;;5035495;28;44972;-71
2024/01/14 00:22:31;;;;;;;8.87;8.27;;;15.50;65.40;;;;;;5035609;28;43902;-71
2024/01/14 00:24:59;;;;;;;9.53;8.83;;;15.60;65.80;;;;;;5045032;28;43383;-71
2024/01/14 00:27:27;;;;;;;8.77;8.17;;;15.60;64.80;;;;;;5043038;28;44616;-71
2024/01/14 00:29:57;;;;;;;8.80;8.20;;;15.60;64.80;;;;;;5044615;28;43859;-71
2024/01/14 00:32:27;;;;;;;8.70;8.17;;;15.60;64.90;;;;;;5044688;28;43964;-71
2024/01/14 00:34:55;;;;;;;9.83;9.13;;;15.60;64.90;;;;;;5050102;28;43489;-71
2024/01/14 00:37:24;;;;;;;8.97;8.43;;;15.60;65.20;;;;;;5034112;28;43958;-71
2024/01/14 00:39:52;;;;;;;9.20;8.60;;;15.50;65.00;;;;;;5061961;28;43452;-70
2024/01/14 00:42:20;;;;;;;9.00;8.37;;;15.60;65.00;;;;;;5059101;28;44367;-70
2024/01/14 00:44:48;;;;;;;9.67;8.97;;;15.50;65.00;;;;;;5073780;28;43442;-70
2024/01/14 00:47:16;;;;;;;9.13;8.53;;;15.50;65.00;;;;;;5058397;28;43553;-71
2024/01/14 00:49:47;;;;;;;8.73;8.23;;;15.50;65.10;;;;;;5066134;28;43399;-70
2024/01/14 00:52:15;;;;;;;9.43;8.80;;;15.50;65.10;;;;;;5064911;28;43383;-70
2024/01/14 00:54:43;;;;;;;8.80;8.20;;;15.50;65.30;;;;;;5061963;28;43466;-70
2024/01/14 00:57:11;;;;;;;8.50;8.00;;;15.50;65.30;;;;;;5064194;28;43909;-70
2024/01/14 00:59:39;;;;;;;8.73;8.23;;;15.50;65.30;;;;;;5061004;28;43432;-70
2024/01/14 01:02:07;;;;;;;9.27;8.67;;;15.50;65.20;;;;;;5063902;28;43419;-70
2024/01/14 01:04:35;;;;;;;8.90;8.30;;;15.40;65.10;;;;;;5073122;28;43944;-70
2024/01/14 01:07:05;;;;;;;9.37;8.67;;;15.50;65.20;;;;;;5068223;28;43679;-70
2024/01/14 01:09:34;;;;;;;9.00;8.40;;;15.50;65.30;;;;;;5059512;28;44734;-70
2024/01/14 01:12:03;;;;;;;8.90;8.30;;;15.50;65.30;;;;;;5064005;28;43371;-70
2024/01/14 01:14:31;;;;;;;8.93;8.33;;;15.40;65.50;;;;;;5061477;28;43585;-71
2024/01/14 01:16:59;;;;;;;8.87;8.27;;;15.50;65.60;;;;;;5061929;28;43675;-69
2024/01/14 01:19:27;;;;;;;9.37;8.77;;;15.60;65.30;;;;;;5064702;28;43409;-70
2024/01/14 01:21:55;;;;;;;8.53;8.03;;;15.60;64.90;;;;;;5060496;28;43370;-70
2024/01/14 01:24:25;;;;;;;8.70;8.10;;;15.60;64.60;;;;;;5057440;28;43515;-69
2024/01/14 01:26:53;;;;;;;8.50;8.00;;;15.70;64.70;;;;;;5064641;28;43613;-70
2024/01/14 01:29:21;;;;;;;8.73;8.23;;;15.60;64.60;;;;;;5063192;28;43395;-70
2024/01/14 01:31:49;;;;;;;8.90;8.30;;;15.60;64.80;;;;;;5066932;28;43388;-69
2024/01/14 01:34:25;;;;;;;8.60;8.07;;;15.60;65.00;;;;;;5061756;28;43781;-71
2024/01/14 01:36:54;;;;;;;8.47;7.97;;;15.50;64.80;;;;;;5057445;28;43884;-71
2024/01/14 01:39:22;;;;;;;8.80;8.20;;;15.50;64.80;;;;;;5055484;28;43347;-70
2024/01/14 01:41:52;;;;;;;8.67;8.07;;;15.60;65.00;;;;;;5061386;28;43463;-70
2024/01/14 01:44:21;;;;;;;8.53;8.03;;;15.50;65.00;;;;;;5063895;28;43474;-70
2024/01/14 01:46:49;;;;;;;8.73;8.23;;;15.50;65.10;;;;;;5062497;28;43598;-70
2024/01/14 01:49:17;;;;;;;8.80;8.20;;;15.50;65.10;;;;;;5076106;28;44397;-69
2024/01/14 01:51:47;;;;;;;9.03;8.33;;;15.50;66.00;;;;;;5059119;28;43396;-69
2024/01/14 01:54:16;;;;;;;8.50;8.00;;;15.50;65.20;;;;;;5069239;28;43358;-70
2024/01/14 01:56:44;;;;;;;8.47;7.90;;;15.50;65.10;;;;;;5060454;28;43940;-69
2024/01/14 01:59:13;;;;;;;8.37;7.87;;;15.50;65.10;;;;;;5081192;28;43328;-69
2024/01/14 02:01:41;;;;;;;9.67;8.97;;;15.50;65.10;;;;;;5065512;28;43418;-69
2024/01/14 02:04:09;;;;;;;8.90;8.27;;;15.50;65.20;;;;;;5069699;27;43401;-69
2024/01/14 02:06:38;;;;;;;8.50;8.00;;;15.50;65.20;;;;;;5064202;27;43897;-69
2024/01/14 02:09:07;;;;;;;8.53;7.93;;;15.40;65.20;;;;;;5073675;27;43441;-69
2024/01/14 02:11:36;;;;;;;8.63;8.03;;;15.40;65.50;;;;;;5062926;27;43482;-69
2024/01/14 02:14:04;;;;;;;9.30;8.70;;;15.50;65.40;;;;;;5064105;28;43407;-69
2024/01/14 02:16:33;;;;;;;8.90;8.30;;;15.60;65.00;;;;;;5061026;27;43834;-69
2024/01/14 02:19:01;;;;;;;8.50;7.90;;;15.60;64.80;;;;;;5069567;28;43472;-69
2024/01/14 02:21:33;;;;;;;7.73;7.27;;;15.60;64.80;;;;;;5064312;28;43432;-69
2024/01/14 02:24:04;;;;;;;8.50;8.00;;;15.60;64.80;;;;;;5066690;27;43430;-70
2024/01/14 02:26:33;;;;;;;8.53;7.93;;;15.60;64.90;;;;;;5073792;27;43912;-69
2024/01/14 02:29:03;;;;;;;8.90;8.30;;;15.50;65.10;;;;;;5063261;28;45117;-69
2024/01/14 02:31:32;;;;;;;8.60;8.00;;;15.50;64.90;;;;;;5055211;28;43475;-69
2024/01/14 02:34:01;;;;;;;8.00;7.50;;;15.50;64.90;;;;;;5070612;28;43448;-69
2024/01/14 02:36:29;;;;;;;9.00;8.40;;;15.50;64.90;;;;;;5059426;27;43557;-69
2024/01/14 02:38:57;;;;;;;8.50;8.00;;;15.50;65.00;;;;;;5064024;27;43383;-69
2024/01/14 02:41:25;;;;;;;8.50;8.00;;;15.50;65.00;;;;;;5063634;27;43475;-69
2024/01/14 02:43:54;;;;;;;8.47;7.87;;;15.50;65.10;;;;;;5062680;28;43384;-69
2024/01/14 02:46:22;;;;;;;8.37;7.77;;;15.40;65.10;;;;;;5057354;28;43604;-69
2024/01/14 02:48:50;;;;;;;8.83;8.23;;;15.50;65.40;;;;;;5069965;27;43358;-69
2024/01/14 02:51:19;;;;;;;9.27;8.57;;;15.50;65.40;;;;;;5057848;28;43446;-69
2024/01/14 02:53:50;;;;;;;8.73;8.13;;;15.60;65.00;;;;;;5064664;28;43442;-69
2024/01/14 02:56:18;;;;;;;8.57;7.97;;;15.60;64.80;;;;;;5070612;27;43861;-69
2024/01/14 02:58:46;;;;;;;9.10;8.50;;;15.60;64.80;;;;;;5057760;27;43446;-71
2024/01/14 03:01:16;;;;;;;8.30;7.70;;;15.50;64.80;;;;;;5044865;28;43471;-71
2024/01/14 03:03:44;;;;;;;9.07;8.47;;;15.50;64.80;;;;;;5040400;28;43418;-71
2024/01/14 03:06:12;;;;;;;8.87;8.27;;;15.50;65.00;;;;;;5039148;28;45903;-71
2024/01/14 03:08:41;;;;;;;8.57;8.07;;;15.50;65.10;;;;;;5048070;28;43419;-71
2024/01/14 03:11:09;;;;;;;8.80;8.20;;;15.50;65.10;;;;;;5042898;28;43448;-71
2024/01/14 03:13:37;;;;;;;8.90;8.30;;;15.50;65.70;;;;;;5043267;28;43452;-71
2024/01/14 03:16:05;;;;;;;8.60;8.00;;;15.50;65.10;;;;;;5044736;28;43607;-71
2024/01/14 03:18:35;;;;;;;8.40;7.83;;;15.50;65.20;;;;;;5036397;28;43457;-70
2024/01/14 03:21:03;;;;;;;8.90;8.30;;;15.50;65.20;;;;;;5050623;28;43594;-71
2024/01/14 03:23:31;;;;;;;8.20;7.60;;;15.40;65.20;;;;;;5036433;28;43508;-71
2024/01/14 03:25:59;;;;;;;8.70;8.10;;;15.40;66.20;;;;;;5037108;28;45052;-77
2024/01/14 03:28:27;;;;;;;8.13;7.63;;;15.40;65.30;;;;;;5044827;28;43920;-71
2024/01/14 03:30:55;;;;;;;8.57;7.97;;;15.40;65.30;;;;;;5040987;28;43431;-71
2024/01/14 03:33:24;;;;;;;8.80;8.20;;;15.40;65.30;;;;;;5038938;28;43906;-71
2024/01/14 03:35:53;;;;;;;8.90;8.30;;;15.40;65.40;;;;;;5035085;28;43874;-71
2024/01/14 03:38:21;;;;;;;9.03;8.33;;;15.40;65.40;;;;;;5042566;28;43979;-71
2024/01/14 03:40:49;;;;;;;8.97;8.37;;;15.40;65.50;;;;;;5039097;28;43439;-71
2024/01/14 03:43:17;;;;;;;9.30;8.60;;;15.30;65.40;;;;;;5038986;28;43979;-70
2024/01/14 03:45:45;;;;;;;8.87;8.27;;;15.40;65.80;;;;;;5039004;28;44424;-72
2024/01/14 03:48:14;;;;;;;8.90;8.30;;;15.40;65.70;;;;;;5035344;28;43891;-72
2024/01/14 03:50:42;;;;;;;9.33;8.67;;;15.50;65.40;;;;;;5038714;28;44073;-72
2024/01/14 03:53:12;;;;;;;8.97;8.37;;;15.60;65.00;;;;;;5035492;28;43427;-72
2024/01/14 03:55:40;;;;;;;8.63;8.03;;;15.60;64.80;;;;;;5040533;28;43913;-72
2024/01/14 03:58:08;;;;;;;9.07;8.47;;;15.60;64.80;;;;;;5036207;28;44815;-72
2024/01/14 04:00:36;;;;;;;9.27;8.60;;;15.60;64.90;;;;;;5040846;28;43431;-72
2024/01/14 04:03:06;;;;;;;10.00;9.30;;;15.50;65.00;;;;;;5039140;28;44045;-72
2024/01/14 04:05:35;;;;;;;9.50;8.90;;;15.50;65.00;;;;;;5044936;28;43843;-72
2024/01/14 04:08:07;;;;;;;9.40;8.80;;;15.50;65.00;;;;;;5046302;28;43514;-70
2024/01/14 04:10:36;;;;;;;9.40;8.70;;;15.50;64.90;;;;;;5074879;27;43498;-70
2024/01/14 04:13:04;;;;;;;8.93;8.30;;;15.50;65.00;;;;;;5068366;27;43456;-70
2024/01/14 04:15:32;;;;;;;9.17;8.47;;;15.50;65.00;;;;;;5081601;27;43615;-70
2024/01/14 04:18:02;;;;;;;9.47;8.87;;;15.50;65.10;;;;;;5069682;28;44019;-70
2024/01/14 04:20:30;;;;;;;8.90;8.30;;;15.50;65.80;;;;;;5069089;27;43438;-70
2024/01/14 04:22:58;;;;;;;9.23;8.53;;;15.50;65.10;;;;;;5060345;27;43443;-70
2024/01/14 04:25:26;;;;;;;8.90;8.30;;;15.50;65.00;;;;;;5078442;27;43611;-70
2024/01/14 04:27:58;;;;;;;8.50;8.00;;;15.50;65.10;;;;;;5060914;27;43415;-69
2024/01/14 04:30:26;;;;;;;8.47;7.93;;;15.50;65.00;;;;;;5064228;27;43542;-69
2024/01/14 04:32:54;;;;;;;9.60;8.90;;;15.50;65.00;;;;;;5069256;27;43361;-69
2024/01/14 04:35:22;;;;;;;9.13;8.43;;;15.50;65.00;;;;;;5067155;27;43871;-68
2024/01/14 04:37:50;;;;;;;10.00;9.30;;;15.50;65.00;;;;;;5056616;28;43432;-71
2024/01/14 04:40:18;;;;;;;8.80;8.13;;;15.50;65.00;;;;;;5067016;27;43450;-69
2024/01/14 04:42:46;;;;;;;9.90;9.10;;;15.50;65.10;;;;;;5066572;28;43443;-71
2024/01/14 04:45:16;;;;;;;9.27;8.57;;;15.60;65.00;;;;;;5071100;27;43592;-69
2024/01/14 04:47:46;;;;;;;9.07;8.47;;;15.70;64.70;;;;;;5068938;27;43411;-71
2024/01/14 04:50:15;;;;;;;8.80;8.17;;;15.70;64.40;;;;;;5060397;27;43543;-69
2024/01/14 04:52:44;;;;;;;9.00;8.40;;;15.70;64.40;;;;;;5067699;27;43518;-69
2024/01/14 04:55:13;;;;;;;8.90;8.23;;;15.70;64.50;;;;;;5061524;28;43857;-69
2024/01/14 04:57:41;;;;;;;9.87;9.00;;;15.60;64.40;;;;;;5069636;28;43442;-70
2024/01/14 05:00:13;;;;;;;9.40;8.80;;;15.60;64.70;;;;;;5063672;27;43418;-69
2024/01/14 05:02:43;;;;;;;9.50;8.80;;;15.60;64.70;;;;;;5065802;28;43436;-69
2024/01/14 05:05:11;;;;;;;9.47;8.77;;;15.60;64.70;;;;;;5060599;28;43904;-69
2024/01/14 05:07:39;;;;;;;9.33;8.73;;;15.60;64.70;;;;;;5063338;27;43417;-69
2024/01/14 05:10:08;;;;;;;9.13;8.43;;;15.60;64.90;;;;;;5063058;27;43442;-69
2024/01/14 05:12:36;;;;;;;9.37;8.67;;;15.50;64.80;;;;;;5068132;27;43356;-69
2024/01/14 05:15:05;;;;;;;10.10;9.30;;;15.50;64.90;;;;;;5076819;27;43689;-69
2024/01/14 05:17:33;;;;;;;9.50;8.80;;;15.50;65.00;;;;;;5080591;27;43442;-69
2024/01/14 05:20:02;;;;;;;9.37;8.67;;;15.50;64.90;;;;;;5066974;28;43351;-71
2024/01/14 05:22:30;;;;;;;9.17;8.50;;;15.50;65.00;;;;;;5065625;28;43405;-70
2024/01/14 05:24:58;;;;;;;9.33;8.67;;;15.50;65.00;;;;;;5058470;28;43621;-70
2024/01/14 05:27:26;;;;;;;9.17;8.57;;;15.50;65.00;;;;;;5052946;28;43344;-71
2024/01/14 05:29:54;;;;;;;9.57;8.80;;;15.50;65.00;;;;;;5064306;28;43415;-72
2024/01/14 05:32:23;;;;;;;8.87;8.27;;;15.50;65.10;;;;;;5053930;28;43427;-71
2024/01/14 05:34:51;;;;;;;9.57;8.87;;;15.50;65.10;;;;;;5060362;28;43901;-71
2024/01/14 05:37:21;;;;;;;9.63;8.93;;;15.50;65.20;;;;;;5065970;28;43436;-70
2024/01/14 05:39:49;;;;;;;9.60;8.90;;;15.60;65.10;;;;;;5062052;28;43387;-70
2024/01/14 05:42:17;;;;;;;9.40;8.80;;;15.70;64.70;;;;;;5065577;28;43551;-72
2024/01/14 05:44:45;;;;;;;9.17;8.57;;;15.70;64.40;;;;;;5058521;28;44176;-71
2024/01/14 05:47:13;;;;;;;9.83;9.13;;;15.70;64.50;;;;;;5052331;28;44665;-71
2024/01/14 05:49:41;;;;;;;9.17;8.53;;;15.60;65.30;;;;;;5068084;28;43358;-71
2024/01/14 05:52:10;;;;;;;8.73;8.13;;;15.60;64.60;;;;;;5065939;28;43465;-70
2024/01/14 05:54:42;;;;;;;9.40;8.70;;;15.60;64.90;;;;;;5061204;28;43876;-70
2024/01/14 05:57:11;;;;;;;9.50;8.80;;;15.60;64.70;;;;;;5058046;28;43403;-70
2024/01/14 05:59:39;;;;;;;9.37;8.67;;;15.60;64.90;;;;;;5063428;28;43403;-70
2024/01/14 06:02:07;;;;;;;9.03;8.43;;;15.60;64.90;;;;;;5060981;28;43403;-70
2024/01/14 06:04:35;;;;;;;9.13;8.43;;;15.50;64.80;;;;;;5050882;28;45767;-70
2024/01/14 06:07:03;;;;;;;9.50;8.80;;;15.50;64.90;;;;;;5062337;28;43458;-70
2024/01/14 06:09:32;;;;;;;9.60;8.90;;;15.50;65.00;;;;;;5063032;28;43379;-70
2024/01/14 06:12:01;;;;;;;9.20;8.50;;;15.50;65.10;;;;;;5066665;28;43482;-70
2024/01/14 06:14:29;;;;;;;9.03;8.43;;;15.50;65.10;;;;;;5058412;28;43622;-70
2024/01/14 06:16:58;;;;;;;9.27;8.63;;;15.50;65.10;;;;;;5055087;28;44891;-70
2024/01/14 06:19:26;;;;;;;9.73;9.03;;;15.50;65.10;;;;;;5064302;28;43388;-71
2024/01/14 06:21:54;;;;;;;10.30;9.50;;;15.50;65.10;;;;;;5064025;28;43410;-72
2024/01/14 06:24:22;;;;;;;9.53;8.83;;;15.50;65.10;;;;;;5051885;28;43711;-72
2024/01/14 06:26:50;;;;;;;9.23;8.63;;;15.50;65.10;;;;;;5057745;28;45146;-71
2024/01/14 06:29:20;;;;;;;9.83;9.13;;;15.50;65.10;;;;;;5046722;28;43391;-72
2024/01/14 06:31:48;;;;;;;9.37;8.67;;;15.50;65.20;;;;;;5043959;28;43362;-72
2024/01/14 06:34:16;;;;;;;9.20;8.60;;;15.50;65.20;;;;;;5036151;28;44063;-72
2024/01/14 06:36:44;;;;;;;9.47;8.77;;;15.60;65.10;;;;;;5041176;28;43415;-72
2024/01/14 06:39:13;;;;;;;9.00;8.40;;;15.70;64.60;;;;;;5037485;28;43493;-72
2024/01/14 06:41:41;;;;;;;9.23;8.53;;;15.70;64.40;;;;;;5044741;28;43475;-72
2024/01/14 06:44:09;;;;;;;9.17;8.57;;;15.70;64.50;;;;;;5034246;28;43608;-72
2024/01/14 06:46:43;;;;;;;9.57;8.87;;;15.70;64.50;;;;;;5035781;28;43423;-72
2024/01/14 06:49:11;;;;;;;9.70;9.00;;;15.70;64.50;;;;;;5043564;28;43507;-72
2024/01/14 06:51:43;;;;;;;9.70;9.00;;;15.70;64.50;;;;;;5039906;28;43552;-72
2024/01/14 06:54:12;;;;;;;9.07;8.47;;;15.70;64.60;;;;;;5043586;28;43958;-71
2024/01/14 06:56:44;;;;;;;8.77;8.17;;;15.60;64.50;;;;;;5038259;28;44911;-71
2024/01/14 06:59:14;;;;;;;9.07;8.40;;;15.60;65.20;;;;;;5039363;28;43393;-71
2024/01/14 07:01:44;;;;;;;9.57;8.87;;;15.70;64.60;;;;;;5039893;28;43486;-71
2024/01/14 07:04:12;;;;;;;9.17;8.57;;;15.60;64.60;;;;;;5035160;28;43607;-71
2024/01/14 07:06:40;;;;;;;10.30;9.50;;;15.60;64.60;;;;;;5039902;28;43410;-71
2024/01/14 07:09:11;;;;;;;8.93;8.30;;;15.60;64.80;;;;;;5036553;28;43478;-71
2024/01/14 07:11:39;;;;;;;9.00;8.30;;;15.60;64.70;;;;;;5038264;28;43442;-71
2024/01/14 07:14:07;;;;;;;9.77;9.07;;;15.60;64.70;;;;;;5040835;28;43772;-71
2024/01/14 07:16:36;;;;;;;9.83;9.13;;;15.60;64.70;;;;;;5044672;28;43410;-71
2024/01/14 07:19:06;;;;;;;9.37;8.70;;;15.60;64.80;;;;;;5033579;28;43439;-71
2024/01/14 07:21:34;;;;;;;9.50;8.77;;;15.50;64.70;;;;;;5032833;28;43552;-71
2024/01/14 07:24:03;;;;;;;9.07;8.47;;;15.60;65.00;;;;;;5037423;28;43596;-71
2024/01/14 07:26:31;;;;;;;9.77;8.97;;;15.50;65.00;;;;;;5047747;28;43966;-72
2024/01/14 07:28:59;;;;;;;9.43;8.70;;;15.50;65.90;;;;;;5044610;28;43412;-72
2024/01/14 07:31:27;;;;;;;9.27;8.57;;;15.60;65.20;;;;;;5043309;28;43548;-71
2024/01/14 07:33:56;;;;;;;9.83;9.13;;;15.70;64.80;;;;;;5042635;28;44525;-71
2024/01/14 07:36:25;;;;;;;9.73;8.93;;;15.70;64.50;;;;;;5040074;28;43407;-71
2024/01/14 07:38:54;;;;;;;8.50;7.93;;;15.70;64.40;;;;;;5052246;28;43917;-70
2024/01/14 07:41:22;;;;;;;9.53;8.83;;;15.70;64.50;;;;;;5052802;28;44693;-70
2024/01/14 07:43:50;;;;;;;9.40;8.70;;;15.60;64.50;;;;;;5053392;28;46003;-70
2024/01/14 07:46:18;;;;;;;9.27;8.67;;;15.60;64.60;;;;;;5057340;28;43905;-70
2024/01/14 07:48:46;;;;;;;8.77;8.10;;;15.60;64.60;;;;;;5060814;28;43495;-70
2024/01/14 07:51:14;;;;;;;9.27;8.67;;;15.60;64.60;;;;;;5054798;28;43473;-70
2024/01/14 07:53:45;;;;;;;8.93;8.40;;;15.60;64.70;;;;;;5067383;28;46042;-70
2024/01/14 07:56:13;;;;;;;8.70;8.10;;;15.60;64.70;;;;;;5063476;28;43954;-71
2024/01/14 07:58:41;;;;;;;9.27;8.57;;;15.60;64.80;;;;;;5062268;28;43472;-70
2024/01/14 08:01:09;;;;;;;8.67;7.97;;;15.60;65.60;;;;;;5056581;28;43522;-71
2024/01/14 08:03:38;;;;;;;9.10;8.40;;;15.50;64.90;;;;;;5066855;28;43549;-70
2024/01/14 08:06:06;;;;;;;8.87;8.23;;;15.60;64.90;;;;;;5053668;28;43851;-70
2024/01/14 08:08:34;;;;;;;9.77;8.97;;;15.60;64.80;;;;;;5060178;28;43497;-70
2024/01/14 08:11:04;;;;;;;8.90;8.20;;;15.50;64.70;;;;;;5056321;28;43458;-70
2024/01/14 08:13:32;;;;;;;8.97;8.40;;;15.60;64.90;;;;;;5060150;28;44920;-70
2024/01/14 08:16:00;;;;;;;8.57;7.97;;;15.60;65.50;;;;;;5051690;28;44714;-71
2024/01/14 08:18:30;;;;;;;8.97;8.27;;;15.60;64.80;;;;;;5059751;28;43376;-70
2024/01/14 08:21:00;;;;;;;9.20;8.50;;;15.50;64.80;;;;;;5057600;28;43420;-70
2024/01/14 08:23:32;;;;;;;8.70;8.17;;;15.50;65.10;;;;;;5063790;28;45297;-70
2024/01/14 08:26:01;;;;;;;9.27;8.57;;;15.60;65.00;;;;;;5054638;28;43437;-70
2024/01/14 08:28:32;;;;;;;8.80;8.10;;;15.70;64.70;;;;;;5049193;28;43398;-71
2024/01/14 08:31:00;;;;;;;8.30;7.70;;;15.70;64.30;;;;;;5055737;28;43494;-71
2024/01/14 08:33:29;;;;;;;8.73;8.03;;;15.70;64.30;;;;;;5058977;28;43854;-70
2024/01/14 08:36:01;;;;;;;9.00;8.30;;;15.70;64.40;;;;;;5057415;28;43442;-70
2024/01/14 08:38:29;;;;;;;8.70;8.00;;;15.60;65.20;;;;;;5058534;28;43465;-70
2024/01/14 08:40:57;;;;;;;8.20;7.57;;;15.60;64.60;;;;;;5054741;28;43451;-70
2024/01/14 08:43:25;;;;;;;7.63;7.10;;;15.60;64.70;;;;;;5058768;28;43609;-69
2024/01/14 08:45:54;;;;;;;8.50;7.80;;;15.60;64.70;;;;;;5060053;28;44307;-70
2024/01/14 08:48:22;;;;;;;8.40;7.80;;;15.50;64.70;;;;;;5059467;28;43396;-72
2024/01/14 08:50:53;;;;;;;8.60;7.90;;;15.60;64.90;;;;;;5044872;28;43423;-71
2024/01/14 08:53:21;;;;;;;8.30;7.70;;;15.50;64.80;;;;;;5043731;28;43870;-71
2024/01/14 08:55:49;;;;;;;8.03;7.50;;;15.50;64.90;;;;;;5044100;28;43437;-71
2024/01/14 08:58:17;;;;;;;8.10;7.53;;;15.50;65.10;;;;;;5047676;28;43543;-71
2024/01/14 09:00:45;;;;;;;8.07;7.43;;;15.50;65.00;;;;;;5039762;28;43364;-71
2024/01/14 09:03:15;;;;;;;7.53;7.03;;;15.50;64.90;;;;;;5040860;28;43866;-71
2024/01/14 09:05:43;;;;;;;8.33;7.73;;;15.50;64.90;;;;;;5034623;28;44747;-71
2024/01/14 09:08:12;;;;;;;7.70;7.20;;;15.50;64.90;;;;;;5037606;28;43500;-71
2024/01/14 09:10:40;;;;;;;8.20;7.60;;;15.50;65.70;;;;;;5041835;28;43554;-71
2024/01/14 09:13:08;;;;;;;7.93;7.33;;;15.50;65.80;;;;;;5040537;28;45258;-71
2024/01/14 09:15:36;;;;;;;8.73;7.93;;;15.50;65.10;;;;;;5039218;28;43383;-70
2024/01/14 09:18:05;;;;;;;8.30;7.70;;;15.50;65.30;;;;;;5038055;28;43460;-71
2024/01/14 09:20:35;;;;;;;7.83;7.33;;;15.60;65.20;;;;;;5043081;28;44022;-71
2024/01/14 09:23:03;;;;;;;8.23;7.57;;;15.60;64.60;;;;;;5037916;28;43984;-71
2024/01/14 09:25:31;;;;;;;8.07;7.47;;;15.70;65.10;;;;;;5041633;28;43472;-71
2024/01/14 09:27:59;;;;;;;7.63;7.13;;;15.70;64.40;;;;;;5043917;28;43894;-71
2024/01/14 09:30:27;;;;;;;8.43;7.70;;;15.70;64.60;;;;;;5050521;28;43404;-71
2024/01/14 09:32:59;;;;;;;8.53;7.73;;;15.60;65.30;;;;;;5041425;28;43854;-71
2024/01/14 09:35:28;;;;;;;7.40;6.90;;;15.60;64.60;;;;;;5033027;28;43563;-71
2024/01/14 09:37:57;;;;;;;6.77;6.17;;;15.60;64.40;;;;;;5043634;28;43434;-70
2024/01/14 09:40:25;;;;;;;7.57;7.07;;;15.60;64.50;;;;;;5040908;28;43499;-71
2024/01/14 09:42:53;;;;;;;8.17;7.30;;;15.60;64.50;;;;;;5043591;28;43980;-71
2024/01/14 09:45:22;;;;;;;7.87;7.17;;;15.50;64.50;;;;;;5036875;28;43588;-71
2024/01/14 09:48:00;;;;;;;7.37;6.87;;;15.50;64.70;;;;;;5043137;28;43443;-71
2024/01/14 09:50:29;;;;;;;7.07;6.63;;;15.50;64.80;;;;;;5033806;28;43354;-71
2024/01/14 09:52:58;;;;;;;7.57;7.03;;;15.50;65.00;;;;;;5048885;28;43827;-73
2024/01/14 09:55:27;;;;;;;6.97;6.47;;;15.50;64.90;;;;;;5041634;28;44020;-74
2024/01/14 09:57:58;;;;;;;7.00;6.50;;;15.50;64.90;;;;;;5049484;28;43541;-70
2024/01/14 10:00:29;;;;;;;7.60;7.00;;;15.50;64.90;;;;;;5040145;28;43380;-71
2024/01/14 10:02:57;;;;;;;7.67;6.97;;;15.50;65.00;;;;;;5043508;28;45944;-71
2024/01/14 10:05:28;;;;;;;7.47;6.87;;;15.40;65.00;;;;;;5034204;28;43391;-71
2024/01/14 10:07:57;;;;;;;9.83;6.90;;;15.50;65.90;;;;;;5037244;28;43484;-71
2024/01/14 10:10:28;;;;;;;6.53;6.03;;;15.40;65.20;;;;;;5041277;28;43441;-71
2024/01/14 10:12:56;;;;;;;7.67;7.10;;;15.50;65.50;;;;;;5043689;28;44503;-71
2024/01/14 10:15:26;;;;;;;8.20;7.07;;;15.50;65.30;;;;;;5042965;28;44745;-72
2024/01/14 10:17:54;;;;;;;6.90;6.40;;;15.60;65.40;;;;;;5035664;28;43399;-71
2024/01/14 10:20:22;;;;;;;6.93;6.40;;;15.60;65.60;;;;;;5044165;28;43510;-72
2024/01/14 10:22:50;;;;;;;7.20;6.60;;;15.60;65.50;;;;;;5044630;28;44455;-72
2024/01/14 10:25:20;;;;;;;6.73;6.33;;;15.60;65.10;;;;;;5035001;28;43426;-72
2024/01/14 10:27:48;;;;;;;9.20;6.90;;;15.60;65.00;;;;;;5056841;28;43458;-72
2024/01/14 10:30:16;;;;;;;6.70;6.30;;;15.60;65.10;;;;;;5035551;28;43482;-72
2024/01/14 10:32:45;;;;;;;6.67;6.20;;;15.60;65.00;;;;;;5040973;28;43690;-72
2024/01/14 10:35:33;;;;;;;6.77;6.27;;;15.60;65.00;;;;;;5029648;28;44659;-71
2024/01/14 10:38:02;;;;;;;7.00;6.33;;;15.60;65.10;;;;;;5045665;28;43826;-72
2024/01/14 10:40:31;;;;;;;7.13;6.63;;;15.60;65.20;;;;;;5041296;28;44591;-72
2024/01/14 10:42:59;;;;;;;6.47;6.07;;;15.60;65.40;;;;;;5040908;28;43854;-73
2024/01/14 10:45:27;;;;;;;7.13;6.43;;;15.60;65.50;;;;;;5039998;28;43410;-72
2024/01/14 10:47:57;;;;;;;6.50;6.00;;;15.50;65.30;;;;;;5038425;28;43559;-73
2024/01/14 10:50:27;;;;;;;6.63;6.13;;;15.60;65.30;;;;;;5039706;28;44007;-71
2024/01/14 10:53:10;;;;;;;7.03;6.43;;;15.50;65.50;;;;;;5038882;28;45659;-72
2024/01/14 10:55:41;;;;;;;7.37;6.60;;;15.60;65.90;;;;;;5041294;28;43937;-73
2024/01/14 10:58:09;;;;;;;6.93;6.43;;;15.60;65.90;;;;;;5043379;28;43481;-72
2024/01/14 11:00:37;;;;;;;7.03;6.53;;;15.60;65.90;;;;;;5047093;28;43392;-71
2024/01/14 11:03:06;;;;;;;6.73;6.33;;;15.50;65.80;;;;;;5044004;28;43882;-72
2024/01/14 11:05:36;;;;;;;6.80;6.20;;;15.50;65.80;;;;;;5032266;28;43472;-71
2024/01/14 11:08:05;;;;;;;6.83;6.23;;;15.50;66.20;;;;;;5042664;28;44028;-71
2024/01/14 11:10:33;;;;;;;6.90;5.60;;;15.60;66.00;;;;;;5036828;28;43667;-74
2024/01/14 11:13:09;;;;;;;7.10;6.60;;;15.60;65.30;;;;;;5036372;28;43608;-77
2024/01/14 11:15:41;;;;;;;5.77;5.47;;;15.70;65.40;;;;;;5031254;28;43448;-73
2024/01/14 11:18:10;;;;;;;7.10;6.60;;;15.70;65.60;;;;;;5034192;28;43505;-78
2024/01/14 11:20:41;;;;;;;6.70;6.30;;;15.70;65.80;;;;;;5041950;28;43431;-72
2024/01/14 11:23:32;;;;;;;6.50;6.10;;;15.60;65.70;;;;;;5031688;28;45702;-71
2024/01/14 11:26:00;;;;;;;6.67;6.27;;;15.60;65.60;;;;;;5040516;28;44496;-72
2024/01/14 11:28:30;;;;;;;6.50;6.07;;;15.60;65.90;;;;;;5041950;28;43817;-76
2024/01/14 11:31:00;;;;;;;13.60;6.43;;;15.70;67.00;;;;;;5050191;28;44043;-71
2024/01/14 11:33:38;;;;;;;6.57;5.93;;;15.60;66.30;;;;;;5044164;28;44413;-71
2024/01/14 11:36:07;;;;;;;6.63;6.13;;;15.70;66.50;;;;;;5046737;28;43484;-71
2024/01/14 11:38:36;;;;;;;5.97;5.63;;;15.60;66.40;;;;;;5036952;28;43375;-71
2024/01/14 11:41:24;;;;;;;6.83;6.33;;;15.60;66.20;;;;;;5032147;28;43518;-72
2024/01/14 11:43:54;;;;;;;6.47;5.97;;;15.60;65.90;;;;;;5044983;28;45794;-71
2024/01/14 11:46:41;;;;;;;7.17;6.53;;;15.60;65.90;;;;;;5034790;28;45820;-72
2024/01/14 11:49:17;;;;;;;7.23;6.63;;;15.60;65.90;;;;;;5049151;28;43487;-72
2024/01/14 11:51:52;;;;;;;6.57;6.07;;;15.60;65.90;;;;;;5041282;28;43953;-72
2024/01/14 11:54:22;;;;;;;6.60;6.20;;;15.60;66.00;;;;;;5044194;28;43619;-73
2024/01/14 11:56:50;;;;;;;6.47;6.07;;;15.60;65.80;;;;;;5040882;28;44101;-72
2024/01/14 11:59:20;;;;;;;6.93;6.33;;;15.60;66.50;;;;;;5034621;28;43454;-72
2024/01/14 12:02:14;;;;;;;6.30;5.80;;;15.60;66.00;;;;;;5034500;28;43603;-72
2024/01/14 12:04:43;;;;;;;7.07;6.23;;;15.70;65.90;;;;;;5040362;28;44880;-72
2024/01/14 12:07:22;;;;;;;6.93;6.33;;;15.70;65.30;;;;;;5039904;28;43877;-71
2024/01/14 12:09:54;;;;;;;6.10;5.60;;;15.80;64.80;;;;;;5035893;28;43449;-71
2024/01/14 12:12:24;;;;;;;5.83;5.50;;;15.80;65.10;;;;;;5029365;28;43503;-72
2024/01/14 12:14:54;;;;;;;6.97;6.47;;;15.70;65.10;;;;;;5034754;28;43919;-73
2024/01/14 12:17:22;;;;;;;6.50;5.90;;;15.70;65.20;;;;;;5042410;28;44020;-71
2024/01/14 12:19:56;;;;;;;6.80;6.30;;;15.70;65.30;;;;;;5065555;28;43451;-70
2024/01/14 12:22:25;;;;;;;6.50;6.00;;;15.70;65.40;;;;;;5070241;28;43618;-69
2024/01/14 12:24:53;;;;;;;6.40;6.00;;;15.70;65.40;;;;;;5066426;27;43838;-69
2024/01/14 12:27:21;;;;;;;6.50;6.10;;;15.60;65.40;;;;;;5067841;28;43375;-69
2024/01/14 12:29:49;;;;;;;6.60;6.20;;;15.60;65.50;;;;;;5071036;27;43438;-69
2024/01/14 12:32:18;;;;;;;7.20;6.70;;;15.60;65.50;;;;;;5067476;28;43490;-69
2024/01/14 12:34:47;;;;;;;6.70;6.20;;;15.60;65.60;;;;;;5063713;28;46814;-69
2024/01/14 12:37:15;;;;;;;6.83;6.33;;;15.60;65.60;;;;;;5064951;28;43419;-69
2024/01/14 12:39:43;;;;;;;7.00;6.50;;;15.60;66.30;;;;;;5068310;28;43510;-69
2024/01/14 12:42:12;;;;;;;6.57;6.07;;;15.60;65.70;;;;;;5072798;28;43441;-69
2024/01/14 12:44:41;;;;;;;7.27;6.73;;;15.60;65.60;;;;;;5068090;28;43685;-69
2024/01/14 12:47:10;;;;;;;7.23;6.63;;;15.60;65.60;;;;;;5084379;28;45030;-69
2024/01/14 12:49:39;;;;;;;7.17;6.67;;;15.60;65.60;;;;;;5083732;27;43357;-69
2024/01/14 12:52:08;;;;;;;7.47;6.87;;;15.60;66.30;;;;;;5068326;27;43440;-69
2024/01/14 12:54:36;;;;;;;7.57;6.97;;;15.60;65.60;;;;;;5073208;28;43619;-69